Time;durP1;ratioP1;P1;durP2;ratioP2;P2;SDS_P1;SDS_P2;PMS_P1;PMS_P2;Temp;Humidity;BMP_temperature;BMP_pressure;BME280_temperature;BME280_humidity;BME280_pressure;Samples;Min_cycle;Max_cycle;Signal;HPM_P1;HPM_P2
2020/12/18 11:47:26;;;;;;;10.87;10.03;;;25.20;46.30;;;;;;6239599;23;20421;-82
2020/12/18 11:49:52;;;;;;;9.70;9.00;;;25.30;43.80;;;;;;6183668;23;20464;-83
2020/12/18 11:52:58;;;;;;;10.40;9.30;;;25.30;43.50;;;;;;6175514;23;20426;-81
2020/12/18 11:55:38;;;;;;;10.10;9.30;;;25.10;42.90;;;;;;6184026;23;20399;-83
2020/12/18 15:06:25;;;;;;;9.23;8.27;;;10.60;99.90;;;;;;6177319;23;20788;-84
2020/12/18 15:09:56;;;;;;;9.13;8.23;;;10.30;99.90;;;;;;6206127;23;20445;-83
2020/12/18 15:13:07;;;;;;;8.23;7.57;;;10.20;99.90;;;;;;6181336;23;20918;-84
2020/12/18 17:15:41;;;;;;;21.77;17.67;;;6.50;99.90;;;;;;5989362;23;20464;-85
2020/12/18 18:02:15;;;;;;;14.17;12.67;;;6.10;99.90;;;;;;6225256;22;20558;-83
2020/12/18 18:05:24;;;;;;;11.90;10.70;;;6.10;99.90;;;;;;6235995;23;20382;-82
2020/12/18 18:08:23;;;;;;;13.33;11.30;;;6.00;99.90;;;;;;6108456;23;20400;-85
2020/12/18 18:11:02;;;;;;;14.53;12.87;;;5.90;99.90;;;;;;6206726;23;20394;-83
2020/12/18 20:55:50;;;;;;;9.13;7.33;;;5.00;99.90;;;;;;6241679;22;20505;-86
2020/12/18 20:58:43;;;;;;;8.50;6.90;;;4.90;99.90;;;;;;6236974;23;20492;-86
2020/12/18 21:01:39;;;;;;;7.17;6.50;;;4.80;99.90;;;;;;6240139;23;20441;-86
2020/12/18 21:04:07;;;;;;;10.00;7.87;;;4.70;99.90;;;;;;6239683;23;20481;-87
2020/12/18 21:06:34;;;;;;;13.37;11.97;;;4.70;99.90;;;;;;6239019;23;20391;-86
2020/12/18 21:09:00;;;;;;;10.50;9.40;;;4.60;99.90;;;;;;6215990;23;20701;-87
2020/12/18 21:11:27;;;;;;;15.30;11.57;;;4.50;99.90;;;;;;6215373;23;20488;-86
2020/12/18 21:13:53;;;;;;;13.63;10.80;;;4.60;99.90;;;;;;6211723;23;20378;-85
2020/12/18 21:16:28;;;;;;;16.53;14.30;;;4.60;99.90;;;;;;6242335;23;20390;-87
2020/12/18 21:18:54;;;;;;;16.07;13.83;;;4.60;99.90;;;;;;6212446;23;20386;-85
2020/12/18 21:21:21;;;;;;;15.90;14.20;;;4.70;99.90;;;;;;6209772;23;20805;-86
2020/12/18 21:23:50;;;;;;;22.30;19.53;;;4.60;99.90;;;;;;6237158;23;20939;-85
2020/12/18 21:26:31;;;;;;;20.17;16.33;;;4.60;99.90;;;;;;6210404;23;20449;-89
2020/12/18 21:29:32;;;;;;;18.30;16.37;;;4.50;99.90;;;;;;6237781;23;20461;-85
2020/12/18 21:32:00;;;;;;;18.70;15.33;;;4.50;99.90;;;;;;6209782;23;20696;-84
2020/12/18 21:34:26;;;;;;;13.27;11.80;;;4.40;99.90;;;;;;6208928;23;20382;-85
2020/12/18 21:36:54;;;;;;;15.40;9.83;;;4.40;99.90;;;;;;6210446;23;20394;-84
2020/12/18 21:39:20;;;;;;;11.53;8.90;;;4.30;99.90;;;;;;6209450;23;20723;-84
2020/12/18 21:41:46;;;;;;;9.40;8.50;;;4.20;99.90;;;;;;6208524;23;20449;-84
2020/12/18 21:44:13;;;;;;;9.50;8.30;;;4.10;99.90;;;;;;6208422;23;20238;-84
2020/12/18 21:46:49;;;;;;;9.90;8.40;;;4.10;99.90;;;;;;6208704;23;20426;-84
2020/12/18 21:49:15;;;;;;;9.60;8.50;;;4.00;99.90;;;;;;6237453;23;20457;-83
2020/12/18 21:52:18;;;;;;;7.73;7.03;;;4.00;99.90;;;;;;6209308;23;20480;-84
2020/12/18 21:55:25;;;;;;;8.40;7.50;;;4.00;99.90;;;;;;6152302;23;20623;-85
2020/12/18 21:58:09;;;;;;;8.33;7.53;;;3.90;99.90;;;;;;6207197;23;20386;-84
2020/12/18 22:01:01;;;;;;;8.13;7.33;;;4.00;99.90;;;;;;6208946;23;20912;-85
2020/12/18 22:03:57;;;;;;;9.63;8.50;;;3.90;99.90;;;;;;6207080;23;20398;-83
2020/12/18 22:06:28;;;;;;;10.73;8.53;;;3.80;99.90;;;;;;6237323;23;20470;-83
2020/12/18 22:08:56;;;;;;;10.43;8.00;;;3.70;99.90;;;;;;6200527;23;20394;-85
2020/12/18 22:11:23;;;;;;;9.40;8.40;;;3.70;99.90;;;;;;6206884;23;20386;-85
2020/12/18 22:13:59;;;;;;;11.50;9.90;;;3.80;99.90;;;;;;6236003;23;20436;-86
2020/12/18 22:16:26;;;;;;;16.77;12.20;;;3.60;99.90;;;;;;6206465;23;20485;-85
2020/12/18 22:18:57;;;;;;;11.63;9.90;;;3.60;99.90;;;;;;6209830;23;20903;-83
2020/12/18 22:21:33;;;;;;;11.90;9.30;;;3.70;99.90;;;;;;6209019;23;20441;-84
2020/12/18 22:24:11;;;;;;;10.23;9.17;;;3.80;99.90;;;;;;6209354;23;20586;-84
2020/12/18 22:27:12;;;;;;;10.83;9.30;;;3.80;99.90;;;;;;6233933;23;20409;-85
2020/12/18 22:29:40;;;;;;;9.47;8.00;;;3.90;99.90;;;;;;6188806;23;20389;-84
2020/12/18 22:32:07;;;;;;;10.87;9.70;;;4.00;99.90;;;;;;6235988;23;20428;-83
2020/12/18 22:34:37;;;;;;;14.50;12.80;;;4.00;99.90;;;;;;6234136;23;20472;-85
2020/12/18 22:37:05;;;;;;;13.13;11.57;;;3.90;99.90;;;;;;6235208;23;20409;-85
2020/12/18 22:39:32;;;;;;;12.60;10.20;;;3.80;99.90;;;;;;6207583;23;20451;-85
2020/12/18 22:41:58;;;;;;;12.10;10.17;;;4.00;99.90;;;;;;6234979;23;20430;-84
2020/12/18 22:44:25;;;;;;;9.93;8.80;;;4.10;99.90;;;;;;6208539;23;20779;-85
2020/12/18 22:46:58;;;;;;;10.80;9.73;;;4.00;99.90;;;;;;6235677;23;20386;-84
2020/12/18 22:49:24;;;;;;;12.13;9.90;;;4.00;99.90;;;;;;6235690;23;20441;-83
2020/12/18 22:51:50;;;;;;;11.80;10.60;;;4.00;99.90;;;;;;6236360;23;20386;-84
2020/12/18 22:54:19;;;;;;;11.70;10.23;;;3.90;99.90;;;;;;6183207;23;20220;-84
2020/12/18 22:56:47;;;;;;;12.30;9.27;;;3.90;99.90;;;;;;6207602;23;20843;-85
2020/12/18 22:59:17;;;;;;;11.30;9.27;;;3.80;99.90;;;;;;6233963;23;20402;-85
2020/12/18 23:01:54;;;;;;;10.73;9.40;;;3.80;99.90;;;;;;6207234;23;20463;-84
2020/12/18 23:04:21;;;;;;;9.40;8.40;;;3.70;99.90;;;;;;6207890;23;20389;-85
2020/12/18 23:06:53;;;;;;;9.20;8.20;;;3.70;99.90;;;;;;6209266;23;20390;-85
2020/12/18 23:09:33;;;;;;;10.30;9.20;;;3.70;99.90;;;;;;6208831;23;20889;-85
2020/12/18 23:12:01;;;;;;;8.90;8.00;;;3.70;99.90;;;;;;6207751;23;20382;-85
2020/12/18 23:14:29;;;;;;;9.20;8.30;;;3.70;99.90;;;;;;6206937;23;20433;-85
2020/12/18 23:16:56;;;;;;;11.83;8.23;;;3.70;99.90;;;;;;6208715;23;20396;-85
2020/12/18 23:19:25;;;;;;;9.13;8.30;;;3.70;99.90;;;;;;6208401;23;20390;-85
2020/12/18 23:21:53;;;;;;;9.40;7.90;;;3.70;99.90;;;;;;6205633;23;20441;-85
2020/12/18 23:24:28;;;;;;;9.20;8.27;;;3.60;99.90;;;;;;6208720;23;20551;-85
2020/12/18 23:26:54;;;;;;;9.00;8.20;;;3.60;99.90;;;;;;6207452;23;20713;-85
2020/12/18 23:29:20;;;;;;;8.67;7.80;;;3.60;99.90;;;;;;6208151;23;20390;-85
2020/12/18 23:34:51;;;;;;;8.13;7.33;;;3.60;99.90;;;;;;6233948;23;20396;-85
2020/12/18 23:58:42;;;;;;;7.90;6.83;;;3.50;99.90;;;;;;6235116;23;20376;-86
